createdAt,value
2023-02-14T00:04:31.582Z,-0.19
2023-02-14T00:09:40.450Z,-0.25
2023-02-14T00:14:49.424Z,-0.25
2023-02-14T00:19:58.352Z,-0.25
2023-02-14T00:25:07.438Z,-0.37
2023-02-14T00:30:16.474Z,-0.5
2023-02-14T00:35:25.351Z,-0.69
2023-02-14T00:40:34.312Z,-0.69
2023-02-14T00:45:43.201Z,-0.75
2023-02-14T00:50:52.293Z,-0.69
2023-02-14T00:56:01.205Z,-0.62
2023-02-14T01:01:10.120Z,-0.62
2023-02-14T01:06:19.117Z,-0.69
2023-02-14T01:11:30.141Z,-0.62
2023-02-14T01:16:37.048Z,-0.44
2023-02-14T01:21:46.149Z,-0.25
2023-02-14T01:26:55.405Z,-0.19
2023-02-14T01:32:04.422Z,-0.25
2023-02-14T01:37:13.497Z,-0.19
2023-02-14T01:42:22.374Z,-0.25
2023-02-14T01:47:31.432Z,-0.37
2023-02-14T01:52:40.397Z,-0.62
2023-02-14T01:57:49.414Z,-0.88
2023-02-14T02:02:58.312Z,-1
2023-02-14T02:08:07.268Z,-1.19
2023-02-14T02:13:16.180Z,-1.25
2023-02-14T02:18:25.069Z,-1.37
2023-02-14T02:23:34.332Z,-1.5
2023-02-14T02:28:43.004Z,-1.69
2023-02-14T02:33:51.877Z,-1.87
2023-02-14T02:39:00.907Z,-1.87
2023-02-14T02:44:09.786Z,-2
2023-02-14T02:54:27.590Z,-2.5
2023-02-14T02:59:36.370Z,-2.5
2023-02-14T03:04:45.450Z,-2.56
2023-02-14T03:09:54.399Z,-2.44
2023-02-14T03:15:03.418Z,-2.62
2023-02-14T03:20:12.434Z,-2.69
2023-02-14T03:25:21.664Z,-2.69
2023-02-14T03:30:30.753Z,-2.62
2023-02-14T03:35:39.799Z,-2.62
2023-02-14T03:40:48.801Z,-2.62
2023-02-14T03:45:57.767Z,-2.75
2023-02-14T03:51:06.792Z,-2.81
2023-02-14T03:56:15.758Z,-2.87
2023-02-14T04:01:24.776Z,-2.94
2023-02-14T04:06:33.614Z,-3.06
2023-02-14T04:11:42.555Z,-3
2023-02-14T04:16:51.491Z,-2.81
2023-02-14T04:22:00.502Z,-2.75
2023-02-14T04:27:09.562Z,-2.75
2023-02-14T04:32:18.540Z,-2.75
2023-02-14T04:37:27.540Z,-2.5
2023-02-14T04:42:36.719Z,-2.44
2023-02-14T04:47:45.903Z,-2.44
2023-02-14T04:52:54.801Z,-2.56
2023-02-14T04:58:03.926Z,-2.69
2023-02-14T05:03:15.916Z,-2.69
2023-02-14T05:08:25.276Z,-2.81
2023-02-14T05:13:34.197Z,-2.87
2023-02-14T05:18:43.229Z,-2.87
2023-02-14T05:23:52.242Z,-2.94
2023-02-14T05:29:01.149Z,-2.56
2023-02-14T05:34:10.160Z,-2.5
2023-02-14T05:39:19.274Z,-2.62
2023-02-14T05:44:28.316Z,-2.62
2023-02-14T05:49:37.276Z,-2.62
2023-02-14T05:54:46.225Z,-2.56
2023-02-14T05:59:55.327Z,-2.56
2023-02-14T06:05:04.192Z,-2.56
2023-02-14T06:10:13.281Z,-2.5
2023-02-14T06:15:22.352Z,-2.56
2023-02-14T06:20:31.300Z,-2.69
2023-02-14T06:25:40.303Z,-2.69
2023-02-14T06:30:49.494Z,-2.62
2023-02-14T06:35:58.276Z,-2.56
2023-02-14T06:41:07.322Z,-2.44
2023-02-14T06:46:16.508Z,-2.31
2023-02-14T06:51:25.694Z,-2.12
2023-02-14T06:56:34.674Z,-1.87
2023-02-14T07:01:44.085Z,-1.5
2023-02-14T07:06:53.118Z,-1.25
2023-02-14T07:12:02.151Z,-1.06
2023-02-14T07:17:11.177Z,-0.75
2023-02-14T07:22:20.076Z,-0.56
2023-02-14T07:27:29.357Z,-0.37
2023-02-14T07:32:38.553Z,-0.13
2023-02-14T07:37:47.700Z,0.13
2023-02-14T07:42:56.909Z,0.25
2023-02-14T07:53:15.290Z,0.56
2023-02-14T07:58:24.427Z,0.62
2023-02-14T08:03:33.399Z,0.62
2023-02-14T08:08:42.510Z,0.69
2023-02-14T08:13:51.522Z,0.75
2023-02-14T08:19:00.632Z,0.69
2023-02-14T08:24:09.763Z,0.94
2023-02-14T08:29:18.687Z,1
2023-02-14T08:39:25.995Z,1.31
2023-02-14T08:44:35.091Z,1.31
2023-02-14T08:49:44.351Z,1.5
2023-02-14T08:54:53.460Z,1.56
2023-02-14T09:00:02.586Z,1.62
2023-02-14T09:05:11.703Z,1.81
2023-02-14T09:10:20.743Z,1.87
2023-02-14T09:15:29.541Z,2
2023-02-14T09:20:38.676Z,2
2023-02-14T09:25:47.633Z,1.69
2023-02-14T09:30:56.796Z,1.44
2023-02-14T09:36:08.184Z,1.56
2023-02-14T09:41:14.607Z,1.62
2023-02-14T09:46:23.757Z,1.62
2023-02-14T09:51:32.788Z,1.69
2023-02-14T09:56:50.497Z,1.94
2023-02-14T10:01:51.144Z,1.94
2023-02-14T10:07:00.017Z,2
2023-02-14T10:12:09.164Z,2.25
2023-02-14T10:17:18.484Z,2.56
2023-02-14T10:27:36.491Z,2.81
2023-02-14T10:32:45.663Z,2.75
2023-02-14T10:37:54.722Z,3
2023-02-14T10:43:03.814Z,3.12
2023-02-14T10:48:12.978Z,3.25
2023-02-14T10:53:22.221Z,3.12
2023-02-14T10:58:31.073Z,2.87
2023-02-14T11:03:41.589Z,3
2023-02-14T11:08:48.871Z,2.75
2023-02-14T11:13:57.865Z,2.44
2023-02-14T11:19:06.902Z,2.75
2023-02-14T11:24:15.866Z,3
2023-02-14T11:29:24.822Z,3.31
2023-02-14T11:34:33.939Z,3.31
2023-02-14T11:39:43.078Z,3.5
2023-02-14T11:44:52.175Z,3.69
2023-02-14T11:50:01.273Z,3.75
2023-02-14T11:55:10.006Z,3.62
2023-02-14T12:00:19.897Z,3.25
2023-02-14T12:05:27.991Z,3.75
2023-02-14T12:10:36.903Z,3.5
2023-02-14T12:15:45.932Z,4.12
2023-02-14T12:20:54.922Z,4.44
2023-02-14T12:26:03.952Z,3.94
2023-02-14T12:31:13.037Z,3.56
2023-02-14T12:36:21.857Z,3.62
2023-02-14T12:41:30.762Z,3.87
2023-02-14T12:46:39.667Z,3.81
2023-02-14T12:51:48.587Z,3.81
2023-02-14T12:56:57.416Z,3.81
2023-02-14T13:02:06.446Z,3.75
2023-02-14T13:07:15.364Z,3.75
2023-02-14T13:12:24.440Z,4
2023-02-14T13:17:33.496Z,4.12
2023-02-14T13:22:42.651Z,4.06
2023-02-14T13:27:51.620Z,4.12
2023-02-14T13:33:00.866Z,3.81
2023-02-14T13:38:09.865Z,4
2023-02-14T13:43:18.939Z,4.19
2023-02-14T13:48:28.512Z,4.44
2023-02-14T13:53:36.826Z,4.25
2023-02-14T13:58:45.759Z,4.12
2023-02-14T14:03:54.749Z,3.87
2023-02-14T14:09:03.605Z,3.81
2023-02-14T14:14:12.463Z,3.81
2023-02-14T14:19:21.524Z,3.81
2023-02-14T14:24:30.593Z,3.87
2023-02-14T14:29:39.605Z,4
2023-02-14T14:34:48.615Z,4
2023-02-14T14:39:57.633Z,4.12
2023-02-14T14:45:06.677Z,4.31
2023-02-14T14:50:15.561Z,4.06
2023-02-14T14:55:24.619Z,4.12
2023-02-14T15:00:33.560Z,3.87
2023-02-14T15:05:42.583Z,4
2023-02-14T15:10:51.463Z,3.81
2023-02-14T15:16:01.840Z,3.75
2023-02-14T15:21:09.275Z,3.56
2023-02-14T15:26:18.207Z,3.56
2023-02-14T15:31:27.229Z,3.5
2023-02-14T15:36:36.188Z,3.44
2023-02-14T15:41:45.110Z,3.19
2023-02-14T15:46:54.118Z,3.06
2023-02-14T15:52:03.231Z,2.81
2023-02-14T15:57:12.096Z,2.56
2023-02-14T16:02:21.160Z,2.44
2023-02-14T16:07:30.073Z,2.31
2023-02-14T16:12:38.924Z,2.12
2023-02-14T16:17:47.757Z,2
2023-02-14T16:22:57.008Z,1.94
2023-02-14T16:28:06.087Z,1.87
2023-02-14T16:33:15.095Z,1.75
2023-02-14T16:38:24.017Z,1.44
2023-02-14T16:43:32.898Z,1.25
2023-02-14T16:48:41.791Z,1.19
2023-02-14T16:53:50.619Z,1.12
2023-02-14T16:58:59.590Z,1.19
2023-02-14T17:04:08.564Z,1.31
2023-02-14T17:14:26.708Z,1.44
2023-02-14T17:19:35.672Z,1.5
2023-02-14T17:24:44.695Z,1.5
2023-02-14T17:29:53.773Z,1.44
2023-02-14T17:35:02.670Z,1.44
2023-02-14T17:40:12.013Z,1.5
2023-02-14T17:45:21.100Z,1.44
2023-02-14T17:50:30.034Z,1.44
2023-02-14T17:55:38.996Z,1.37
2023-02-14T18:00:48.566Z,1.37
2023-02-14T18:05:57.127Z,1.37
2023-02-14T18:11:06.185Z,1.37
2023-02-14T18:16:15.219Z,1.37
2023-02-14T18:21:24.103Z,1.37
2023-02-14T18:36:29.315Z,1.31
2023-02-14T18:41:38.390Z,1.31
2023-02-14T18:46:47.667Z,1.25
2023-02-14T18:51:56.628Z,1.25
2023-02-14T18:57:05.617Z,1.19
2023-02-14T19:02:14.912Z,1.12
2023-02-14T19:07:23.934Z,1.06
2023-02-14T19:12:32.681Z,1.06
2023-02-14T19:17:41.617Z,1.06
2023-02-14T19:22:50.708Z,1.06
2023-02-14T19:27:59.737Z,1.12
2023-02-14T19:33:08.749Z,1.12
2023-02-14T19:38:17.721Z,1.19
2023-02-14T19:43:26.694Z,1.06
2023-02-14T19:48:35.815Z,1.12
2023-02-14T19:53:45.058Z,1.19
2023-02-14T19:58:53.938Z,1.12
2023-02-14T20:04:03.180Z,1
2023-02-14T20:09:11.998Z,1
2023-02-14T20:14:20.818Z,0.94
2023-02-14T20:19:29.896Z,0.94
2023-02-14T20:24:42.113Z,0.94
2023-02-14T20:29:51.176Z,0.88
2023-02-14T20:35:00.097Z,0.81
2023-02-14T20:50:05.531Z,0.94
2023-02-14T20:55:14.642Z,0.94
2023-02-14T21:00:23.621Z,0.88
2023-02-14T21:05:32.568Z,0.81
2023-02-14T21:10:41.504Z,0.88
2023-02-14T21:15:50.597Z,0.94
2023-02-14T21:20:59.753Z,0.94
2023-02-14T21:26:08.542Z,0.94
2023-02-14T21:31:17.669Z,1
2023-02-14T21:36:26.592Z,1
2023-02-14T21:41:35.651Z,0.94
2023-02-14T21:46:44.653Z,0.88
2023-02-14T21:56:51.774Z,1
2023-02-14T22:02:00.865Z,0.88
2023-02-14T22:07:09.726Z,0.81
2023-02-14T22:12:18.656Z,0.69
2023-02-14T22:17:27.779Z,0.75
2023-02-14T22:22:36.605Z,0.69
2023-02-14T22:27:45.578Z,0.69
2023-02-14T22:32:54.729Z,0.62
2023-02-14T22:38:03.627Z,0.69
2023-02-14T22:43:12.698Z,0.75
2023-02-14T22:53:30.714Z,0.62
2023-02-14T22:58:39.743Z,0.69
2023-02-14T23:03:48.921Z,0.69
2023-02-14T23:08:58.007Z,0.69
2023-02-14T23:14:06.938Z,0.69
2023-02-14T23:19:16.030Z,0.69
2023-02-14T23:24:24.972Z,0.69
2023-02-14T23:29:33.965Z,0.75
2023-02-14T23:34:43.088Z,0.75
2023-02-14T23:39:51.962Z,0.75
2023-02-14T23:45:01.010Z,0.69
2023-02-14T23:50:09.975Z,0.69
2023-02-14T23:55:18.965Z,0.69
